createdAt,value
2023-01-12T00:01:35.426Z,8.67
2023-01-12T00:04:03.567Z,14.88
2023-01-12T00:06:34.267Z,7.20
2023-01-12T00:09:06.594Z,10.77
2023-01-12T00:11:34.630Z,11.35
2023-01-12T00:14:02.375Z,9.10
2023-01-12T00:16:37.760Z,8.13
2023-01-12T00:19:08.142Z,15.57
2023-01-12T00:21:56.517Z,11.65
2023-01-12T00:24:28.184Z,8.43
2023-01-12T00:26:56.104Z,8.30
2023-01-12T00:29:24.039Z,6.18
2023-01-12T00:31:51.802Z,9.50
2023-01-12T00:34:19.654Z,9.43
2023-01-12T00:36:47.547Z,10.05
2023-01-12T00:39:15.509Z,8.38
2023-01-12T00:42:01.829Z,11.55
2023-01-12T00:44:48.375Z,5.97
2023-01-12T00:47:16.309Z,8.32
2023-01-12T00:49:44.190Z,9.02
2023-01-12T00:52:29.435Z,16.63
2023-01-12T00:54:58.503Z,10.35
2023-01-12T00:57:26.939Z,11.90
2023-01-12T00:59:55.721Z,18.23
2023-01-12T01:02:23.883Z,10.80
2023-01-12T01:04:51.642Z,24.85
2023-01-12T01:07:21.855Z,10.48
2023-01-12T01:09:49.806Z,12.37
2023-01-12T01:12:17.772Z,17.25
2023-01-12T01:14:45.507Z,13.82
2023-01-12T01:17:14.872Z,18.63
2023-01-12T01:19:43.859Z,11.88
2023-01-12T01:22:13.224Z,11.88
2023-01-12T01:24:43.837Z,5.70
2023-01-12T01:27:11.611Z,14.40
2023-01-12T01:29:39.335Z,13.00
2023-01-12T01:32:07.608Z,17.20
2023-01-12T01:34:36.407Z,7.37
2023-01-12T01:37:04.248Z,14.45
2023-01-12T01:39:31.992Z,15.73
2023-01-12T01:42:01.231Z,12.20
2023-01-12T01:44:31.915Z,8.32
2023-01-12T01:47:00.978Z,14.52
2023-01-12T01:49:28.858Z,8.73
2023-01-12T01:52:01.147Z,16.80
2023-01-12T01:54:29.380Z,15.75
2023-01-12T01:56:57.091Z,16.85
2023-01-12T01:59:25.853Z,9.63
2023-01-12T02:01:53.649Z,22.08
2023-01-12T02:04:21.549Z,13.13
2023-01-12T02:06:49.507Z,9.53
2023-01-12T02:09:22.704Z,7.03
2023-01-12T02:12:09.230Z,7.68
2023-01-12T02:14:55.548Z,9.37
2023-01-12T02:17:27.308Z,10.77
2023-01-12T02:20:13.794Z,13.40
2023-01-12T02:23:00.187Z,8.50
2023-01-12T02:25:40.343Z,9.93
2023-01-12T02:28:26.227Z,10.45
2023-01-12T02:31:06.134Z,12.00
2023-01-12T02:33:52.504Z,9.03
2023-01-12T02:36:20.232Z,13.88
2023-01-12T02:38:49.163Z,11.55
2023-01-12T02:41:20.045Z,10.23
2023-01-12T02:43:47.763Z,13.98
2023-01-12T02:46:21.501Z,20.98
2023-01-12T02:48:51.564Z,5.13
2023-01-12T02:51:23.104Z,10.60
2023-01-12T02:53:54.517Z,14.05
2023-01-12T02:56:27.712Z,13.77
2023-01-12T02:58:56.169Z,16.63
2023-01-12T03:01:24.157Z,13.82
2023-01-12T03:03:52.186Z,23.65
2023-01-12T03:06:20.055Z,13.87
2023-01-12T03:08:48.591Z,10.35
2023-01-12T03:11:19.546Z,14.02
2023-01-12T03:13:55.530Z,6.72
2023-01-12T03:16:24.121Z,10.47
2023-01-12T03:18:54.955Z,12.07
2023-01-12T03:21:28.484Z,14.68
2023-01-12T03:24:05.250Z,9.63
2023-01-12T03:26:33.942Z,12.85
2023-01-12T03:29:04.327Z,6.90
2023-01-12T03:31:32.090Z,10.67
2023-01-12T03:33:59.849Z,18.15
2023-01-12T03:36:40.847Z,6.95
2023-01-12T03:39:12.556Z,10.75
2023-01-12T03:41:50.128Z,23.93
2023-01-12T03:44:20.298Z,13.82
2023-01-12T03:46:52.033Z,18.40
2023-01-12T03:49:28.001Z,15.57
2023-01-12T03:51:55.738Z,14.32
2023-01-12T03:54:23.534Z,10.52
2023-01-12T03:56:51.321Z,18.50
2023-01-12T03:59:19.109Z,9.20
2023-01-12T04:01:49.140Z,8.82
2023-01-12T04:04:17.175Z,9.10
2023-01-12T04:06:44.919Z,17.90
2023-01-12T04:09:12.565Z,9.63
2023-01-12T04:11:59.160Z,12.02
2023-01-12T04:14:26.854Z,4.90
2023-01-12T04:16:54.721Z,13.15
2023-01-12T04:19:22.503Z,12.52
2023-01-12T04:22:09.107Z,15.50
2023-01-12T04:24:36.853Z,18.65
2023-01-12T04:27:04.744Z,11.15
2023-01-12T04:29:32.479Z,5.85
2023-01-12T04:32:00.443Z,10.83
2023-01-12T04:34:28.236Z,9.13
2023-01-12T04:36:56.009Z,9.35
2023-01-12T04:39:23.777Z,11.70
2023-01-12T04:41:51.494Z,17.33
2023-01-12T04:44:19.307Z,14.20
2023-01-12T04:46:47.118Z,13.03
2023-01-12T04:49:14.848Z,7.15
2023-01-12T04:51:42.595Z,7.55
2023-01-12T04:54:10.946Z,7.28
2023-01-12T04:56:38.739Z,6.47
2023-01-12T04:59:08.949Z,6.82
2023-01-12T05:01:39.249Z,0.85
2023-01-12T05:04:08.112Z,3.60
2023-01-12T05:06:36.018Z,0.95
2023-01-12T05:09:22.564Z,4.75
2023-01-12T05:11:50.476Z,4.40
2023-01-12T05:14:18.240Z,4.20
2023-01-12T05:16:46.012Z,3.55
2023-01-12T05:19:13.879Z,0.50
2023-01-12T05:21:41.842Z,4.00
2023-01-12T05:24:12.888Z,4.43
2023-01-12T05:26:40.548Z,0.50
2023-01-12T05:29:09.260Z,8.73
2023-01-12T05:31:37.037Z,0.30
2023-01-12T05:34:04.867Z,2.78
2023-01-12T05:36:32.671Z,1.03
2023-01-12T05:39:00.467Z,0.20
2023-01-12T05:41:28.643Z,4.20
2023-01-12T05:43:56.475Z,2.67
2023-01-12T05:46:25.389Z,3.57
2023-01-12T05:48:53.546Z,1.92
2023-01-12T05:51:21.348Z,1.02
2023-01-12T05:53:49.313Z,2.07
2023-01-12T05:56:18.050Z,1.30
2023-01-12T05:58:55.548Z,0.15
2023-01-12T06:01:23.530Z,0.20
2023-01-12T06:03:54.902Z,2.17
2023-01-12T06:06:23.047Z,0.13
2023-01-12T06:08:52.774Z,0.75
2023-01-12T06:11:39.552Z,0.20
2023-01-12T06:14:07.359Z,2.38
2023-01-12T06:16:37.398Z,0.20
2023-01-12T06:19:05.167Z,3.70
2023-01-12T06:21:33.367Z,0.25
2023-01-12T06:24:01.132Z,2.35
2023-01-12T06:26:28.974Z,0.10
2023-01-12T06:28:56.758Z,2.67
2023-01-12T06:31:24.597Z,1.27
2023-01-12T06:33:53.430Z,0.57
2023-01-12T06:36:21.145Z,0.50
2023-01-12T06:38:48.896Z,1.73
2023-01-12T06:41:35.195Z,0.60
2023-01-12T06:44:02.992Z,0.77
2023-01-12T06:46:30.816Z,0.70
2023-01-12T06:48:59.013Z,2.45
2023-01-12T06:51:26.888Z,1.17
2023-01-12T06:53:54.797Z,2.67
2023-01-12T06:56:22.634Z,2.50
2023-01-12T06:58:50.375Z,2.20
2023-01-12T07:01:18.237Z,0.93
2023-01-12T07:03:46.156Z,0.93
2023-01-12T07:06:15.278Z,2.47
2023-01-12T07:08:43.573Z,6.43
2023-01-12T07:11:15.614Z,2.17
2023-01-12T07:13:43.494Z,2.53
2023-01-12T07:16:11.382Z,1.93
2023-01-12T07:18:39.172Z,6.05
2023-01-12T07:21:07.698Z,6.38
2023-01-12T07:23:35.612Z,11.27
2023-01-12T07:26:04.101Z,6.63
2023-01-12T07:28:33.885Z,9.00
2023-01-12T07:31:02.498Z,7.18
2023-01-12T07:33:30.482Z,11.93
2023-01-12T07:35:59.102Z,16.83
2023-01-12T07:38:30.072Z,24.83
2023-01-12T07:41:01.052Z,24.53
2023-01-12T07:43:28.976Z,22.40
2023-01-12T07:45:57.754Z,14.77
2023-01-12T07:48:26.758Z,22.60
2023-01-12T07:50:54.861Z,14.67
2023-01-12T07:53:22.771Z,23.67
2023-01-12T07:55:50.531Z,20.20
2023-01-12T07:58:18.235Z,15.67
2023-01-12T08:00:46.027Z,15.20
2023-01-12T08:03:16.883Z,19.40
2023-01-12T08:05:44.653Z,16.57
2023-01-12T08:08:12.446Z,14.10
2023-01-12T08:10:41.150Z,11.25
2023-01-12T08:13:08.941Z,13.93
2023-01-12T08:15:37.239Z,17.20
2023-01-12T08:18:06.883Z,13.73
2023-01-12T08:20:35.232Z,11.77
2023-01-12T08:23:12.769Z,10.57
2023-01-12T08:25:44.752Z,16.65
2023-01-12T08:28:19.835Z,25.80
2023-01-12T08:30:48.099Z,19.77
2023-01-12T08:33:15.889Z,13.55
2023-01-12T08:35:43.589Z,20.48
2023-01-12T08:38:11.336Z,5.05
2023-01-12T08:41:11.441Z,18.63
2023-01-12T08:43:58.169Z,12.75
2023-01-12T08:46:25.919Z,23.58
2023-01-12T08:48:54.140Z,16.53
2023-01-12T08:51:21.908Z,14.98
2023-01-12T08:53:49.683Z,9.40
2023-01-12T08:56:17.451Z,11.63
2023-01-12T08:58:45.138Z,5.28
2023-01-12T09:01:14.187Z,9.88
2023-01-12T09:03:42.246Z,9.38
2023-01-12T09:06:13.475Z,10.73
2023-01-12T09:08:41.417Z,14.20
2023-01-12T09:11:09.453Z,12.07
2023-01-12T09:13:37.081Z,16.03
2023-01-12T09:16:12.696Z,9.90
2023-01-12T09:18:41.020Z,8.55
2023-01-12T09:21:12.480Z,8.20
2023-01-12T09:23:40.300Z,12.48
2023-01-12T09:26:09.051Z,9.15
2023-01-12T09:28:36.772Z,10.30
2023-01-12T09:31:05.196Z,11.60
2023-01-12T09:33:32.975Z,16.50
2023-01-12T09:36:04.450Z,14.48
2023-01-12T09:38:32.387Z,21.80
2023-01-12T09:41:02.280Z,8.18
2023-01-12T09:43:48.692Z,14.82
2023-01-12T09:46:45.630Z,6.93
2023-01-12T09:49:13.543Z,9.77
2023-01-12T09:51:52.483Z,9.77
2023-01-12T09:54:20.227Z,8.88
2023-01-12T09:56:52.628Z,11.00
2023-01-12T09:59:36.363Z,9.82
2023-01-12T10:02:04.255Z,9.23
2023-01-12T10:04:32.687Z,13.50
2023-01-12T10:07:06.658Z,7.90
2023-01-12T10:09:38.022Z,7.60
2023-01-12T10:12:08.104Z,5.50
2023-01-12T10:14:41.209Z,19.77
2023-01-12T10:17:16.404Z,15.13
2023-01-12T10:19:53.337Z,16.08
2023-01-12T10:22:39.998Z,12.50
2023-01-12T10:25:25.813Z,11.98
2023-01-12T10:27:54.242Z,13.43
2023-01-12T10:30:30.815Z,11.87
2023-01-12T10:32:59.619Z,8.13
2023-01-12T10:35:27.468Z,11.52
2023-01-12T10:37:56.295Z,10.13
2023-01-12T10:40:30.729Z,8.88
2023-01-12T10:43:20.557Z,9.55
2023-01-12T10:46:03.663Z,10.25
2023-01-12T10:48:31.626Z,7.60
2023-01-12T10:51:00.362Z,20.23
2023-01-12T10:53:29.034Z,10.57
2023-01-12T10:55:56.855Z,7.07
2023-01-12T10:58:29.617Z,10.23
2023-01-12T11:00:57.457Z,12.50
2023-01-12T11:03:32.225Z,9.40
2023-01-12T11:06:18.509Z,13.48
2023-01-12T11:08:46.274Z,12.07
2023-01-12T11:11:40.223Z,9.10
2023-01-12T11:14:09.439Z,25.43
2023-01-12T11:16:40.099Z,13.05
2023-01-12T11:19:07.879Z,5.53
2023-01-12T11:21:36.365Z,14.37
2023-01-12T11:24:05.972Z,15.48
2023-01-12T11:26:36.492Z,14.38
2023-01-12T11:29:15.692Z,6.87
2023-01-12T11:31:43.607Z,10.73
2023-01-12T11:34:17.175Z,9.02
2023-01-12T11:36:47.271Z,6.25
2023-01-12T11:39:16.017Z,12.00
2023-01-12T11:42:18.492Z,8.07
2023-01-12T11:44:46.155Z,8.80
2023-01-12T11:47:41.548Z,12.53
2023-01-12T11:50:12.714Z,4.57
2023-01-12T11:52:40.531Z,10.98
2023-01-12T11:55:10.277Z,14.20
2023-01-12T11:57:37.974Z,9.25
2023-01-12T12:00:20.651Z,13.63
2023-01-12T12:02:57.381Z,12.95
2023-01-12T12:05:28.861Z,12.60
2023-01-12T12:08:02.449Z,9.20
2023-01-12T12:10:33.074Z,10.20
2023-01-12T12:13:09.940Z,12.50
2023-01-12T12:16:00.653Z,11.82
2023-01-12T12:18:37.617Z,9.75
2023-01-12T12:21:24.038Z,11.33
2023-01-12T12:24:01.854Z,8.30
2023-01-12T12:26:31.288Z,8.07
2023-01-12T12:29:02.007Z,12.88
2023-01-12T12:31:29.760Z,5.27
2023-01-12T12:33:57.473Z,8.65
2023-01-12T12:36:31.218Z,7.00
2023-01-12T12:39:11.090Z,11.23
2023-01-12T12:42:01.426Z,17.42
2023-01-12T12:44:56.622Z,13.13
2023-01-12T12:47:41.921Z,9.07
2023-01-12T12:50:21.410Z,9.32
2023-01-12T12:52:52.601Z,12.60
2023-01-12T12:55:20.273Z,11.30
2023-01-12T12:58:04.083Z,11.20
2023-01-12T13:00:46.847Z,11.00
2023-01-12T13:03:33.368Z,11.35
2023-01-12T13:06:19.701Z,7.27
2023-01-12T13:08:47.680Z,9.60
2023-01-12T13:11:15.431Z,9.77
2023-01-12T13:14:01.972Z,11.00
2023-01-12T13:16:29.777Z,7.35
2023-01-12T13:18:57.488Z,9.57
2023-01-12T13:21:28.045Z,8.07
2023-01-12T13:24:04.263Z,9.33
2023-01-12T13:26:32.344Z,12.32
2023-01-12T13:29:29.281Z,9.93
2023-01-12T13:32:15.635Z,18.13
2023-01-12T13:34:46.519Z,3.45
2023-01-12T13:37:17.030Z,9.98
2023-01-12T13:39:46.680Z,14.07
2023-01-12T13:42:33.226Z,16.77
2023-01-12T13:45:00.940Z,11.10
2023-01-12T13:47:35.356Z,9.15
2023-01-12T13:50:03.289Z,13.10
2023-01-12T13:52:32.232Z,16.30
2023-01-12T13:55:00.042Z,13.80
2023-01-12T13:57:28.787Z,16.33
2023-01-12T14:00:09.410Z,17.85
2023-01-12T14:02:37.531Z,16.52
2023-01-12T14:05:07.888Z,11.60
2023-01-12T14:07:41.739Z,16.27
2023-01-12T14:10:24.811Z,12.02
2023-01-12T14:13:09.310Z,13.52
2023-01-12T14:15:56.820Z,16.17
2023-01-12T14:18:41.739Z,13.60
2023-01-12T14:21:21.407Z,15.85
2023-01-12T14:23:49.078Z,9.33
2023-01-12T14:26:22.356Z,14.93
2023-01-12T14:28:51.166Z,12.85
2023-01-12T14:31:31.144Z,15.73
2023-01-12T14:33:59.554Z,6.47
2023-01-12T14:36:32.002Z,10.38
2023-01-12T14:38:59.930Z,7.22
2023-01-12T14:41:47.392Z,7.33
2023-01-12T14:44:59.953Z,15.50
2023-01-12T14:47:32.163Z,11.50
2023-01-12T14:50:16.006Z,8.80
2023-01-12T14:52:44.457Z,19.45
2023-01-12T14:55:16.000Z,20.67
2023-01-12T14:57:43.770Z,13.97
2023-01-12T15:00:21.576Z,10.02
2023-01-12T15:02:52.912Z,10.57
2023-01-12T15:05:20.567Z,11.43
2023-01-12T15:08:04.141Z,11.50
2023-01-12T15:10:39.465Z,13.38
2023-01-12T15:13:19.417Z,11.60
2023-01-12T15:16:06.179Z,4.27
2023-01-12T15:18:53.907Z,5.30
2023-01-12T15:21:40.986Z,7.32
2023-01-12T15:24:47.562Z,5.83
2023-01-12T15:27:22.301Z,5.63
2023-01-12T15:29:50.109Z,4.72
2023-01-12T15:32:19.264Z,3.80
2023-01-12T15:34:47.507Z,0.40
2023-01-12T15:37:18.521Z,5.45
2023-01-12T15:39:46.636Z,6.07
2023-01-12T15:42:18.046Z,1.30
2023-01-12T15:44:45.785Z,3.90
2023-01-12T15:47:13.929Z,3.35
2023-01-12T15:49:42.129Z,3.83
2023-01-12T15:52:16.656Z,1.33
2023-01-12T15:54:44.396Z,8.20
2023-01-12T15:57:12.888Z,1.50
2023-01-12T15:59:40.710Z,2.20
2023-01-12T16:02:20.320Z,3.33
2023-01-12T16:04:48.085Z,3.72
2023-01-12T16:07:15.838Z,2.50
2023-01-12T16:09:45.880Z,4.85
2023-01-12T16:12:13.728Z,7.68
2023-01-12T16:14:41.564Z,3.33
2023-01-12T16:17:09.323Z,9.50
2023-01-12T16:19:41.517Z,6.40
2023-01-12T16:22:15.397Z,10.98
2023-01-12T16:24:44.949Z,8.17
2023-01-12T16:27:12.707Z,11.23
2023-01-12T16:29:40.503Z,15.73
2023-01-12T16:32:08.120Z,13.20
2023-01-12T16:34:35.851Z,18.30
2023-01-12T16:37:03.598Z,13.77
2023-01-12T16:39:31.344Z,13.40
2023-01-12T16:42:05.079Z,15.70
2023-01-12T16:44:33.198Z,11.07
2023-01-12T16:47:00.895Z,8.15
2023-01-12T16:49:28.663Z,5.33
2023-01-12T16:51:57.027Z,10.57
2023-01-12T16:54:24.829Z,6.75
2023-01-12T16:56:52.741Z,5.20
2023-01-12T16:59:20.627Z,6.40
2023-01-12T17:01:48.543Z,4.72
2023-01-12T17:04:16.638Z,6.63
2023-01-12T17:06:44.413Z,7.97
2023-01-12T17:09:12.055Z,2.50
2023-01-12T17:11:44.090Z,2.53
2023-01-12T17:14:24.669Z,7.93
2023-01-12T17:16:53.392Z,5.65
2023-01-12T17:19:21.653Z,4.38
2023-01-12T17:21:50.367Z,6.90
2023-01-12T17:24:20.201Z,6.10
2023-01-12T17:26:52.468Z,9.20
2023-01-12T17:29:20.757Z,1.87
2023-01-12T17:31:49.595Z,1.27
2023-01-12T17:34:17.430Z,4.32
2023-01-12T17:36:45.233Z,4.45
2023-01-12T17:39:14.839Z,5.03
2023-01-12T17:42:01.405Z,3.75
2023-01-12T17:44:29.162Z,5.75
2023-01-12T17:46:57.079Z,6.03
2023-01-12T17:49:24.945Z,3.55
2023-01-12T17:51:53.081Z,7.32
2023-01-12T17:54:20.817Z,5.60
2023-01-12T17:56:48.579Z,8.23
2023-01-12T17:59:18.294Z,8.82
2023-01-12T18:01:46.403Z,10.88
2023-01-12T18:04:14.331Z,12.97
2023-01-12T18:06:42.231Z,8.10
2023-01-12T18:09:10.860Z,5.75
2023-01-12T18:11:38.956Z,16.17
2023-01-12T18:14:06.793Z,11.38
2023-01-12T18:16:34.589Z,8.80
2023-01-12T18:19:05.928Z,21.13
2023-01-12T18:21:33.855Z,10.18
2023-01-12T18:24:01.546Z,12.88
2023-01-12T18:26:30.282Z,12.73
2023-01-12T18:28:58.469Z,9.93
2023-01-12T18:31:27.031Z,15.38
2023-01-12T18:34:05.609Z,18.10
2023-01-12T18:36:34.095Z,8.97
2023-01-12T18:39:01.835Z,10.10
2023-01-12T18:41:48.349Z,8.95
2023-01-12T18:44:16.033Z,12.10
2023-01-12T18:47:03.045Z,15.15
2023-01-12T18:49:31.704Z,11.32
2023-01-12T18:52:18.271Z,9.38
2023-01-12T18:54:50.157Z,6.73
2023-01-12T18:57:19.466Z,18.23
2023-01-12T18:59:47.488Z,11.35
2023-01-12T19:02:15.428Z,17.10
2023-01-12T19:04:43.227Z,6.15
2023-01-12T19:07:13.547Z,8.43
2023-01-12T19:09:41.482Z,15.83
2023-01-12T19:12:09.731Z,10.55
2023-01-12T19:14:56.341Z,13.32
2023-01-12T19:17:27.373Z,10.73
2023-01-12T19:19:55.358Z,18.10
2023-01-12T19:22:41.785Z,13.02
2023-01-12T19:25:30.720Z,7.60
2023-01-12T19:28:17.529Z,7.87
2023-01-12T19:30:46.373Z,12.90
2023-01-12T19:33:17.732Z,15.35
2023-01-12T19:35:45.807Z,14.50
2023-01-12T19:38:25.311Z,12.77
2023-01-12T19:40:56.738Z,10.93
2023-01-12T19:43:27.413Z,15.15
2023-01-12T19:45:58.991Z,17.30
2023-01-12T19:48:27.418Z,11.68
2023-01-12T19:50:55.170Z,14.75
2023-01-12T19:53:23.662Z,14.20
2023-01-12T19:55:52.211Z,6.55
2023-01-12T19:58:22.206Z,5.82
2023-01-12T20:00:50.077Z,15.30
2023-01-12T20:03:19.031Z,16.73
2023-01-12T20:05:51.087Z,13.70
2023-01-12T20:08:19.188Z,15.90
2023-01-12T20:10:46.998Z,18.40
2023-01-12T20:13:14.783Z,24.33
2023-01-12T20:15:43.824Z,19.27
2023-01-12T20:18:13.904Z,15.20
2023-01-12T20:20:41.703Z,12.15
2023-01-12T20:23:09.391Z,19.48
2023-01-12T20:25:37.088Z,21.77
2023-01-12T20:28:04.889Z,13.52
2023-01-12T20:30:37.788Z,17.15
2023-01-12T20:33:06.778Z,22.02
2023-01-12T20:35:35.311Z,16.17
2023-01-12T20:38:07.050Z,18.33
2023-01-12T20:40:34.781Z,13.57
2023-01-12T20:43:02.503Z,13.33
2023-01-12T20:45:30.144Z,12.73
2023-01-12T20:47:58.252Z,15.20
2023-01-12T20:50:25.906Z,14.00
2023-01-12T20:52:54.493Z,13.38
2023-01-12T20:55:22.986Z,19.30
2023-01-12T20:57:50.719Z,7.97
2023-01-12T21:00:18.634Z,9.90
2023-01-12T21:02:46.372Z,15.60
2023-01-12T21:05:14.149Z,15.18
2023-01-12T21:07:41.817Z,14.87
2023-01-12T21:10:12.167Z,9.70
2023-01-12T21:12:39.835Z,15.65
2023-01-12T21:15:08.096Z,14.40
2023-01-12T21:17:39.103Z,10.93
2023-01-12T21:20:07.658Z,17.98
2023-01-12T21:22:35.301Z,16.42
2023-01-12T21:25:03.039Z,19.57
2023-01-12T21:27:30.749Z,13.30
2023-01-12T21:29:58.529Z,8.63
2023-01-12T21:32:27.830Z,14.00
2023-01-12T21:34:55.469Z,13.65
2023-01-12T21:37:23.181Z,16.75
2023-01-12T21:39:50.860Z,13.40
2023-01-12T21:42:47.903Z,16.33
2023-01-12T21:45:15.556Z,11.85
2023-01-12T21:47:46.052Z,12.90
2023-01-12T21:50:14.062Z,15.37
2023-01-12T21:52:42.198Z,18.15
2023-01-12T21:55:11.985Z,15.57
2023-01-12T21:57:40.017Z,22.37
2023-01-12T22:00:08.237Z,21.25
2023-01-12T22:02:36.035Z,16.80
2023-01-12T22:05:04.152Z,19.70
2023-01-12T22:07:31.800Z,9.38
2023-01-12T22:10:19.180Z,18.15
2023-01-12T22:12:47.443Z,9.73
2023-01-12T22:15:15.317Z,21.17
2023-01-12T22:17:43.022Z,22.17
2023-01-12T22:20:11.311Z,21.10
2023-01-12T22:22:39.183Z,21.90
2023-01-12T22:25:07.377Z,21.85
2023-01-12T22:27:35.421Z,21.60
2023-01-12T22:30:03.208Z,11.30
2023-01-12T22:32:30.951Z,17.58
2023-01-12T22:35:01.910Z,24.23
2023-01-12T22:37:29.673Z,18.15
2023-01-12T22:39:57.404Z,13.20
2023-01-12T22:42:43.934Z,14.57
2023-01-12T22:45:11.866Z,18.55
2023-01-12T22:47:47.872Z,14.03
2023-01-12T22:50:16.209Z,20.25
2023-01-12T22:52:43.865Z,16.08
2023-01-12T22:55:11.554Z,20.30
2023-01-12T22:57:39.237Z,19.10
2023-01-12T23:00:07.215Z,24.10
2023-01-12T23:02:53.732Z,17.80
2023-01-12T23:05:21.413Z,13.57
2023-01-12T23:07:49.138Z,18.40
2023-01-12T23:10:16.885Z,19.80
2023-01-12T23:13:04.705Z,13.60
2023-01-12T23:15:32.366Z,13.73
2023-01-12T23:18:00.142Z,21.23
2023-01-12T23:20:27.866Z,18.27
2023-01-12T23:22:55.563Z,24.75
2023-01-12T23:25:23.492Z,15.88
2023-01-12T23:27:52.414Z,14.27
2023-01-12T23:30:20.408Z,19.70
2023-01-12T23:32:48.732Z,18.45
2023-01-12T23:35:16.958Z,22.25
2023-01-12T23:37:44.905Z,11.03
2023-01-12T23:40:12.707Z,18.95
2023-01-12T23:42:40.435Z,11.50
2023-01-12T23:45:08.284Z,19.67
2023-01-12T23:47:36.002Z,19.13
2023-01-12T23:50:04.697Z,16.98
2023-01-12T23:52:32.311Z,21.25
2023-01-12T23:55:00.004Z,9.73
2023-01-12T23:57:29.145Z,15.82
2023-01-12T23:59:56.853Z,27.00
